Latest Weather Observations for Coonabarabran Airport

IDN60801

Issued at 9:35 pm EDT Thursday 27 November 2014 (issued every 30 minutes, with the page automatically refreshed every 10 minutes)

About weather observations | Map of weather stations | Latest weather observations for NSW | Other Formats
Station Details ID: 064017 Name: COONABARABRAN AIRPORT AWS Lat: -31.33 Lon: 149.27 Height: 645.0 m
Data from the previous 72 hours. | See also: Recent months for locations in New South Wales
Date/Time
EDT
Temp
°C
App
Temp
°C
Dew
Point
Rel
Hum
%
Delta-T
°C
Wind Press
QNH
hPa
Press
MSL
hPa
Rain
since 9 am
mm
Dir
 
Spd
km/h
Gust
km/h
Spd
kts
Gust
kts
27/09:30pm 19.1 15.7 11.2 60 4.4 E 20 28 11 15 1020.1 1017.2 0.0
27/09:00pm 20.0 16.8 11.2 57 5.0 E 19 24 10 13 1019.5 1016.6 0.0
27/08:30pm 20.8 17.4 10.6 52 5.7 SE 19 24 10 13 1019.2 1016.3 0.0
27/08:00pm 21.9 18.4 10.1 47 6.6 SSE 19 24 10 13 1018.8 1015.9 0.0
27/07:30pm 23.4 18.8 9.8 42 7.6 SE 24 33 13 18 1018.4 1015.5 0.0
27/07:00pm 24.6 19.5 9.3 38 8.6 SE 26 32 14 17 1018.2 1015.3 0.0
27/06:30pm 25.3 19.8 9.2 36 9.0 SE 28 39 15 21 1017.9 1015.0 0.0
27/06:00pm 26.5 20.9 8.9 33 9.9 SSE 28 37 15 20 1017.3 1014.4 0.0
27/05:30pm 27.6 21.9 8.5 30 10.7 SSE 28 44 15 24 1017.0 1014.1 0.0
27/05:00pm 28.5 24.0 8.7 29 11.2 SE 22 32 12 17 1016.8 1013.9 0.0
27/04:30pm 27.6 23.6 9.0 31 10.5 SE 20 26 11 14 1016.9 1014.0 0.0
27/04:00pm 27.9 23.9 9.2 31 10.6 SE 20 30 11 16 1016.9 1014.0 0.0
27/03:30pm 29.6 25.6 8.1 26 12.1 S 19 28 10 15 1017.0 1014.1 0.0
27/03:00pm 28.0 23.6 7.3 27 11.4 ESE 20 28 11 15 1017.2 1014.3 0.0
27/02:30pm 29.5 27.3 8.0 26 12.1 SE 9 22 5 12 1017.5 1014.5 0.0
27/02:00pm 29.2 24.6 8.3 27 11.8 E 22 35 12 19 1017.9 1015.0 0.0
27/01:30pm 26.9 23.6 7.9 30 10.5 SE 15 24 8 13 1018.1 1015.2 0.0
27/01:00pm 27.3 24.5 8.7 31 10.4 S 13 20 7 11 1018.3 1015.4 0.0
27/12:30pm 27.9 24.9 9.2 31 10.6 SSE 15 20 8 11 1018.6 1015.7 0.0
27/12:00pm 25.6 22.7 8.1 33 9.6 S 13 26 7 14 1018.9 1016.1 0.0
27/11:30am 26.4 25.0 10.9 38 9.0 SSE 9 15 5 8 1019.2 1016.3 0.0
27/11:00am 25.4 23.6 10.8 40 8.4 SSE 11 19 6 10 1019.4 1016.5 0.0
27/10:30am 24.3 22.0 11.9 45 7.2 ESE 15 22 8 12 1019.5 1016.6 0.0
27/10:00am 23.3 22.1 12.9 52 6.1 ENE 11 19 6 10 1019.6 1016.7 0.0
27/09:30am 22.2 20.6 12.7 55 5.6 SSE 13 19 7 10 1019.7 1016.8 0.0
27/09:00am 21.0 20.2 13.9 64 4.2 S 11 15 6 8 1019.8 1016.9 0.0
27/08:30am 19.9 18.9 14.5 71 3.2 S 13 19 7 10 1019.8 1016.9 0.0
27/08:00am 18.8 17.3 14.3 75 2.7 S 15 19 8 10 1019.4 1016.5 0.0
27/07:30am 18.0 16.8 13.9 77 2.4 SSW 13 17 7 9 1019.2 1016.3 0.0
27/07:00am 17.1 15.6 13.2 78 2.3 SSW 13 17 7 9 1018.8 1015.9 0.0
27/06:30am 16.2 14.6 12.7 80 2.0 SSW 13 17 7 9 1018.4 1015.5 0.0
27/06:00am 15.4 13.6 12.0 80 1.9 SSW 13 15 7 8 1018.1 1015.2 0.0
27/05:30am 15.6 13.3 10.6 72 2.7 SSW 13 15 7 8 1017.8 1014.9 0.0
27/05:00am 15.9 12.9 9.3 65 3.5 SSW 15 20 8 11 1017.5 1014.5 0.0
27/04:30am 16.3 12.6 6.2 51 5.1 SSW 15 19 8 10 1017.1 1014.2 0.0
27/04:00am 16.7 12.5 3.7 42 6.2 SSW 15 19 8 10 1016.9 1014.0 0.0
27/03:30am 16.6 12.2 0.3 33 7.3 SSW 13 17 7 9 1016.8 1013.9 0.0
27/03:00am 17.0 12.4 -0.7 30 7.8 SSW 13 17 7 9 1016.9 1014.0 0.0
27/02:30am 17.9 13.0 -0.8 28 8.3 SSW 15 19 8 10 1017.0 1014.1 0.0
27/02:00am 18.3 13.7 -1.0 27 8.5 SSW 13 20 7 11 1017.3 1014.4 0.0
27/01:30am 18.6 14.0 -1.3 26 8.8 SSW 13 20 7 11 1017.7 1014.8 0.0
27/01:00am 19.5 14.1 -1.6 24 9.3 SSW 17 22 9 12 1018.1 1015.2 0.0
27/12:30am 19.9 14.4 -1.8 23 9.6 SSW 17 24 9 13 1018.5 1015.6 0.0
27/12:00am 20.0 14.5 -2.3 22 9.7 SSW 17 26 9 14 1018.7 1015.8 0.0
 
Date/Time
EDT
Temp
°C
App
Temp
°C
Dew
Point
Rel
Hum
%
Delta-T
°C
Wind Press
QNH
hPa
Press
MSL
hPa
Rain
since 9 am
mm
Dir
 
Spd
km/h
Gust
km/h
Spd
kts
Gust
kts
26/11:30pm 20.3 14.3 -2.7 21 10.0 SSW 19 28 10 15 1018.8 1015.9 0.0
26/11:00pm 21.2 14.6 -3.3 19 10.6 SW 22 28 12 15 1018.8 1015.9 0.0
26/10:30pm 21.2 15.0 -3.3 19 10.6 SW 20 28 11 15 1018.7 1015.8 0.0
26/10:00pm 21.8 15.6 -3.5 18 11.0 SW 20 28 11 15 1018.5 1015.6 0.0
26/09:30pm 22.0 15.8 -3.4 18 11.1 SW 20 26 11 14 1018.2 1015.3 0.0
26/09:00pm 22.3 16.8 -2.4 19 11.0 SW 17 22 9 12 1017.8 1014.9 0.0
26/08:30pm 23.3 17.5 -1.6 19 11.3 SW 19 26 10 14 1017.5 1014.5 0.0
26/08:00pm 24.0 18.3 -1.0 19 11.6 SW 19 22 10 12 1017.2 1014.3 0.0
26/07:30pm 25.5 19.9 0.2 19 12.1 SW 19 30 10 16 1017.0 1014.1 0.0
26/07:00pm 26.9 21.9 1.3 19 12.6 WSW 17 24 9 13 1016.6 1013.7 0.0
26/06:30pm 27.5 21.6 -0.5 16 13.4 SW 20 28 11 15 1016.3 1013.4 0.0
26/06:00pm 28.1 21.4 -0.9 15 13.9 SW 24 32 13 17 1016.1 1013.1 0.0
26/05:30pm 29.0 21.8 -2.2 13 14.7 SW 26 37 14 20 1015.9 1012.9 0.0
26/05:00pm 29.4 23.9 -1.9 13 14.8 WSW 17 24 9 13 1015.7 1012.8 0.0
26/04:30pm 29.7 23.7 1.2 16 14.3 WSW 22 33 12 18 1015.7 1012.8 0.0
26/04:00pm 29.6 23.8 4.3 20 13.4 W 24 33 13 18 1016.0 1013.0 0.0
26/03:30pm 29.6 26.4 11.2 32 10.9 NW 19 37 10 20 1016.1 1013.1 0.0
26/03:00pm 28.6 24.0 11.2 34 10.2 NNW 26 32 14 17 1016.5 1013.6 0.0
26/02:30pm 27.2 24.5 13.5 42 8.3 NNW 20 28 11 15 1016.9 1014.0 0.0
26/02:00pm 27.3 24.4 12.9 41 8.7 NNW 20 37 11 20 1017.3 1014.4 0.0
26/01:30pm 26.4 23.5 13.9 46 7.6 NW 22 35 12 19 1017.8 1014.9 0.0
26/01:00pm 26.4 25.1 14.8 49 7.2 NW 15 35 8 19 1018.2 1015.3 0.0
26/12:30pm 25.0 23.4 15.0 53 6.2 NNW 17 26 9 14 1018.4 1015.5 0.0
26/12:00pm 25.1 23.1 15.4 55 6.0 NNW 20 28 11 15 1018.8 1015.9 0.0
26/11:30am 23.5 20.9 15.0 59 5.2 NNW 22 30 12 16 1019.0 1016.2 0.0
26/11:00am 23.5 20.9 14.8 58 5.3 NW 22 28 12 15 1019.2 1016.3 0.0
26/10:30am 22.8 21.9 13.6 56 5.5 NNW 11 19 6 10 1019.5 1016.6 0.0
26/10:00am 21.1 20.5 12.3 57 5.1 NW 7 15 4 8 1019.5 1016.6 0.0
26/09:30am 19.0 17.9 10.8 59 4.6 SW 7 15 4 8 1019.5 1016.6 0.0
26/09:00am 17.5 15.8 9.7 60 4.2 SW 9 11 5 6 1019.4 1016.5 0.0
26/08:30am 17.1 15.3 9.3 60 4.2 SSW 9 13 5 7 1019.3 1016.4 0.0
26/08:00am 16.8 15.5 9.2 61 4.1 S 6 13 3 7 1018.8 1015.9 0.0
26/07:30am 15.3 13.3 8.5 64 3.6 SSW 9 13 5 7 1018.6 1015.7 0.0
26/07:00am 14.5 12.4 8.2 66 3.3 SSW 9 13 5 7 1018.4 1015.5 0.0
26/06:30am 13.4 10.7 7.4 67 3.0 SSW 11 11 6 6 1018.3 1015.4 0.0
26/06:00am 13.2 10.0 4.9 57 4.0 SSW 11 13 6 7 1018.3 1015.4 0.0
26/05:30am 14.0 10.1 1.0 41 5.8 SSW 11 15 6 8 1018.2 1015.3 0.0
26/05:00am 14.6 10.1 -0.3 36 6.5 SSW 13 15 7 8 1017.7 1014.8 0.0
26/04:30am 15.2 11.1 -0.1 35 6.7 S 11 13 6 7 1017.8 1014.9 0.0
26/04:00am 16.1 12.0 -0.2 33 7.2 SSW 11 13 6 7 1017.6 1014.7 0.0
26/03:30am 16.5 12.3 -0.7 31 7.5 SSW 11 13 6 7 1017.5 1014.5 0.0
26/03:00am 15.8 11.7 -0.4 33 7.1 SSW 11 13 6 7 1017.6 1014.7 0.0
26/02:30am 16.2 12.0 -0.9 31 7.4 SSW 11 13 6 7 1017.9 1015.0 0.0
26/02:00am 17.1 12.9 -1.1 29 7.9 SSW 11 13 6 7 1018.0 1015.1 0.0
26/01:30am 17.1 13.3 -1.1 29 7.9 SSW 9 13 5 7 1018.3 1015.4 0.0
26/01:00am 17.1 13.3 -1.1 29 7.9 SSW 9 11 5 6 1018.7 1015.8 0.0
26/12:30am 17.2 13.4 -1.0 29 8.0 SSW 9 11 5 6 1019.0 1016.2 0.0
26/12:00am 17.3 12.7 -0.9 29 8.0 SSW 13 15 7 8 1019.2 1016.3 0.0
 
Date/Time
EDT
Temp
°C
App
Temp
°C
Dew
Point
Rel
Hum
%
Delta-T
°C
Wind Press
QNH
hPa
Press
MSL
hPa
Rain
since 9 am
mm
Dir
 
Spd
km/h
Gust
km/h
Spd
kts
Gust
kts
25/11:30pm 17.0 12.8 -1.1 29 7.9 SW 11 15 6 8 1019.5 1016.6 0.0
25/11:00pm 17.0 13.2 -1.1 29 7.9 SSW 9 13 5 7 1019.6 1016.7 0.0
25/10:30pm 17.1 12.7 -2.5 26 8.3 SSW 11 13 6 7 1019.5 1016.6 0.0
25/10:00pm 16.8 12.0 -2.8 26 8.2 S 13 15 7 8 1019.3 1016.4 0.0
25/09:30pm 17.2 12.5 -1.9 27 8.2 S 13 15 7 8 1019.5 1016.6 0.0
25/09:00pm 17.3 12.7 -1.4 28 8.1 S 13 15 7 8 1019.0 1016.2 0.0
25/08:30pm 17.8 13.5 -1.4 27 8.4 S 11 13 6 7 1018.7 1015.8 0.0
25/08:00pm 18.5 14.2 -1.3 26 8.7 SSE 11 13 6 7 1018.7 1015.8 0.0
25/07:30pm 19.8 15.1 -1.9 23 9.5 SSE 13 19 7 10 1018.3 1015.4 0.0
25/07:00pm 22.0 16.6 -4.9 16 11.4 S 15 20 8 11 1018.1 1015.2 0.0
25/06:30pm 24.0 18.6 -4.2 15 12.3 S 15 20 8 11 1017.6 1014.7 0.0
25/06:00pm 23.9 18.8 -5.2 14 12.4 S 13 22 7 12 1017.3 1014.4 0.0
25/05:30pm 22.8 17.9 -0.6 21 10.8 SSW 15 20 8 11 1017.7 1014.8 0.0
25/05:00pm 22.3 17.3 3.4 29 9.4 S 19 26 10 14 1017.7 1014.8 0.0
25/04:30pm 22.5 18.3 5.9 34 8.7 S 17 20 9 11 1017.9 1015.0 0.0
25/04:00pm 22.6 18.7 7.2 37 8.2 SSW 17 20 9 11 1018.1 1015.2 0.0
25/03:30pm 23.1 19.9 8.4 39 8.0 SSW 15 20 8 11 1018.0 1015.1 0.0
25/03:00pm 23.2 19.6 8.5 39 8.0 SSW 17 28 9 15 1018.2 1015.3 0.0
25/02:30pm 23.9 20.7 9.9 41 7.9 S 17 28 9 15 1018.2 1015.3 0.0
25/02:00pm 23.1 19.4 9.5 42 7.6 S 19 26 10 14 1018.3 1015.4 0.0
25/01:30pm 23.3 20.7 12.0 49 6.6 S 17 24 9 13 1018.5 1015.6 0.0
25/01:00pm 22.5 19.7 13.3 56 5.5 SW 20 26 11 14 1018.4 1015.5 0.0
25/12:30pm 21.7 19.6 14.6 64 4.3 SW 19 24 10 13 1018.6 1015.7 0.0
25/12:00pm 21.6 19.2 14.5 64 4.3 SSW 20 28 11 15 1018.7 1015.8 0.0
25/11:30am 21.8 18.9 15.2 66 4.0 SW 24 30 13 16 1018.8 1015.9 0.0
25/11:00am 20.5 18.6 15.7 74 2.9 SSW 20 26 11 14 1018.7 1015.8 0.0
25/10:30am 20.1 18.1 15.5 75 2.8 SSW 20 28 11 15 1018.6 1015.7 0.0
25/10:00am 21.6 20.0 16.6 73 3.1 SSW 20 28 11 15 1018.4 1015.5 0.0
25/09:30am 19.9 17.2 15.5 76 2.7 SSW 24 32 13 17 1018.2 1015.3 0.0
25/09:00am 19.2 17.1 15.1 77 2.5 SSW 20 30 11 16 1018.1 1015.2 5.4
25/08:30am 19.2 16.5 15.7 80 2.1 SSW 24 30 13 16 1017.6 1014.7 5.4
25/08:00am 18.6 16.9 15.7 83 1.8 S 19 24 10 13 1017.0 1014.1 5.4
25/07:30am 18.4 18.2 16.6 89 1.1 SSW 13 19 7 10 1016.5 1013.6 5.4
25/07:00am 17.7 18.0 16.9 95 0.5 S 11 13 6 7 1015.9 1012.9 5.4
25/06:30am 17.7 18.0 16.9 95 0.5 SSW 11 15 6 8 1016.0 1013.0 5.4
25/06:00am 17.9 18.3 16.4 91 0.9 S 9 15 5 8 1015.4 1012.5 5.4
25/05:30am 17.9 17.9 16.2 90 1.0 S 11 17 6 9 1014.7 1011.7 5.4
25/05:00am 18.5 18.8 15.9 85 1.6 SSW 9 13 5 7 1015.0 1012.1 5.2
25/04:30am 19.5 17.4 16.2 81 2.0 SW 22 33 12 18 1015.4 1012.5 5.0
25/04:00am 20.2 18.6 16.6 80 2.2 SW 20 28 11 15 1014.8 1011.9 5.0
25/03:30am 21.2 18.6 16.0 72 3.2 SW 24 35 13 19 1014.0 1011.1 5.0
25/03:00am 21.4 19.7 14.8 66 4.0 SW 17 20 9 11 1013.9 1011.0 5.0
25/02:30am 21.5 19.3 14.9 66 4.0 WSW 20 28 11 15 1014.0 1011.1 5.0
25/02:00am 20.9 19.8 15.4 71 3.4 WSW 15 22 8 12 1014.4 1011.4 5.0
25/01:30am 20.3 20.2 16.1 77 2.6 W 11 15 6 8 1014.8 1011.9 5.0
25/01:00am 20.3 20.1 16.7 80 2.2 W 13 20 7 11 1015.5 1012.6 5.0
25/12:30am 21.3 17.9 15.8 71 3.4 W 28 41 15 22 1016.1 1013.1 5.0
25/12:19am 22.7 19.1 15.3 63 4.5 W 28 46 15 25 1016.2 1013.3 5.0
25/12:14am 22.7 19.3 15.8 65 4.3 W 28 35 15 19 1016.4 1013.5 5.0
25/12:00am 21.9 21.9 16.2 70 3.5 NW 11 15 6 8 1016.3 1013.4 5.0
 
Date/Time
EDT
Temp
°C
App
Temp
°C
Dew
Point
Rel
Hum
%
Delta-T
°C
Wind Press
QNH
hPa
Press
MSL
hPa
Rain
since 9 am
mm
Dir
 
Spd
km/h
Gust
km/h
Spd
kts
Gust
kts
24/11:30pm 21.8 21.9 16.5 72 3.3 WNW 11 17 6 9 1016.3 1013.4 5.0
24/11:00pm 22.5 20.6 15.8 66 4.1 WSW 20 35 11 19 1016.2 1013.3 5.0
24/10:30pm 23.5 19.9 15.3 60 5.1 SW 28 43 15 23 1015.7 1012.8 5.0
24/10:08pm 25.2 21.3 14.3 50 6.7 WSW 28 46 15 25 1015.6 1012.7 5.0
24/10:00pm 25.6 22.3 14.1 49 7.0 W 24 35 13 19 1015.4 1012.5 5.0

Other Formats:

Comma delimited format used in spreadsheet applications
http://www.bom.gov.au/fwo/IDN60801/IDN60801.95728.axf

JavaScript Object Notation format (JSON) in row-major order
http://www.bom.gov.au/fwo/IDN60801/IDN60801.95728.json